createdAt,value
2019-04-29T00:01:31.963Z,2.10
2019-04-29T00:04:00.374Z,1.60
2019-04-29T00:06:30.750Z,1.67
2019-04-29T00:08:59.099Z,1.73
2019-04-29T00:11:27.566Z,1.80
2019-04-29T00:13:55.957Z,1.80
2019-04-29T00:16:45.768Z,1.90
2019-04-29T00:19:27.053Z,1.60
2019-04-29T00:21:55.559Z,1.90
2019-04-29T00:24:24.173Z,1.70
2019-04-29T00:26:52.618Z,2.20
2019-04-29T00:29:21.106Z,1.80
2019-04-29T00:31:49.865Z,1.70
2019-04-29T00:34:18.317Z,1.90
2019-04-29T00:36:57.211Z,1.80
2019-04-29T00:39:43.820Z,1.80
2019-04-29T00:42:31.805Z,1.90
2019-04-29T00:45:00.310Z,1.57
2019-04-29T00:47:29.031Z,1.53
2019-04-29T00:49:57.555Z,1.60
2019-04-29T00:52:26.086Z,1.30
2019-04-29T00:55:00.660Z,1.80
2019-04-29T00:57:29.121Z,1.37
2019-04-29T00:59:57.538Z,1.40
2019-04-29T01:02:26.010Z,1.60
2019-04-29T01:04:54.400Z,1.67
2019-04-29T01:07:22.828Z,1.67
2019-04-29T01:09:51.389Z,1.50
2019-04-29T01:12:19.796Z,1.60
2019-04-29T01:14:48.295Z,1.50
2019-04-29T01:17:17.073Z,1.60
2019-04-29T01:19:45.550Z,1.53
2019-04-29T01:22:14.193Z,1.50
2019-04-29T01:24:42.874Z,1.47
2019-04-29T01:27:19.614Z,1.40
2019-04-29T01:29:48.192Z,1.80
2019-04-29T01:32:16.597Z,1.47
2019-04-29T01:35:03.155Z,1.70
2019-04-29T01:37:45.561Z,1.70
2019-04-29T01:40:46.984Z,1.87
2019-04-29T01:43:18.976Z,1.87
2019-04-29T01:45:47.830Z,1.80
2019-04-29T01:48:16.253Z,1.83
2019-04-29T01:50:44.651Z,1.97
2019-04-29T01:53:13.106Z,1.93
2019-04-29T01:55:41.631Z,2.03
2019-04-29T01:58:10.151Z,2.10
2019-04-29T02:00:38.723Z,2.27
2019-04-29T02:03:07.136Z,2.03
2019-04-29T02:05:35.572Z,2.30
2019-04-29T02:08:05.478Z,2.23
2019-04-29T02:10:34.419Z,1.90
2019-04-29T02:13:02.873Z,1.90
2019-04-29T02:15:32.136Z,1.57
2019-04-29T02:18:00.602Z,1.70
2019-04-29T02:20:28.935Z,1.77
2019-04-29T02:23:19.535Z,2.00
2019-04-29T02:25:48.385Z,1.70
2019-04-29T02:28:16.798Z,1.80
2019-04-29T02:30:48.369Z,1.97
2019-04-29T02:33:16.779Z,1.90
2019-04-29T02:35:45.164Z,1.80
2019-04-29T02:38:35.916Z,1.93
2019-04-29T02:41:23.364Z,1.60
2019-04-29T02:43:53.492Z,2.00
2019-04-29T02:46:21.894Z,1.80
2019-04-29T02:48:50.360Z,1.90
2019-04-29T02:51:37.180Z,1.90
2019-04-29T02:54:05.660Z,1.67
2019-04-29T02:56:34.208Z,1.73
2019-04-29T02:59:04.306Z,2.07
2019-04-29T03:01:50.738Z,2.00
2019-04-29T03:04:22.266Z,1.80
2019-04-29T03:06:51.663Z,1.90
2019-04-29T03:09:20.064Z,2.20
2019-04-29T03:11:49.479Z,2.50
2019-04-29T03:14:17.958Z,2.03
2019-04-29T03:16:46.453Z,2.10
2019-04-29T03:19:20.367Z,2.20
2019-04-29T03:21:52.355Z,1.80
2019-04-29T03:24:20.822Z,2.03
2019-04-29T03:26:49.483Z,1.83
2019-04-29T03:29:23.903Z,1.90
2019-04-29T03:31:53.469Z,2.10
2019-04-29T03:34:21.961Z,2.10
2019-04-29T03:36:50.413Z,1.90
2019-04-29T03:39:18.934Z,2.00
2019-04-29T03:41:47.355Z,2.00
2019-04-29T03:44:15.771Z,2.10
2019-04-29T03:46:44.254Z,1.90
2019-04-29T03:49:12.676Z,2.10
2019-04-29T03:51:41.150Z,1.93
2019-04-29T03:54:10.891Z,2.00
2019-04-29T03:56:41.395Z,2.00
2019-04-29T03:59:09.932Z,1.77
2019-04-29T04:01:49.123Z,2.10
2019-04-29T04:04:39.681Z,2.20
2019-04-29T04:07:26.021Z,1.97
2019-04-29T04:09:54.612Z,1.80
2019-04-29T04:12:23.064Z,1.90
2019-04-29T04:14:51.524Z,2.13
2019-04-29T04:17:34.777Z,2.20
2019-04-29T04:20:03.460Z,2.20
2019-04-29T04:22:45.812Z,2.10
2019-04-29T04:25:14.582Z,2.00
2019-04-29T04:27:43.187Z,2.30
2019-04-29T04:30:12.304Z,2.60
2019-04-29T04:32:40.753Z,2.20
2019-04-29T04:35:09.237Z,2.37
2019-04-29T04:37:38.442Z,2.07
2019-04-29T04:40:08.387Z,2.10
2019-04-29T04:42:36.831Z,1.90
2019-04-29T04:45:06.332Z,2.13
2019-04-29T04:47:34.818Z,1.90
2019-04-29T04:50:03.471Z,2.17
2019-04-29T04:52:32.047Z,2.00
2019-04-29T04:55:00.491Z,2.27
2019-04-29T04:57:28.938Z,3.20
2019-04-29T04:59:57.526Z,2.30
2019-04-29T05:02:26.372Z,2.10
2019-04-29T05:04:54.851Z,2.13
2019-04-29T05:07:23.370Z,1.87
2019-04-29T05:09:51.838Z,2.63
2019-04-29T05:12:20.313Z,2.17
2019-04-29T05:14:48.823Z,2.20
2019-04-29T05:17:17.265Z,2.50
2019-04-29T05:19:45.771Z,2.23
2019-04-29T05:22:14.300Z,2.50
2019-04-29T05:24:42.746Z,2.33
2019-04-29T05:27:11.205Z,2.90
2019-04-29T05:29:39.776Z,2.77
2019-04-29T05:32:08.245Z,2.87
2019-04-29T05:34:41.753Z,2.70
2019-04-29T05:37:19.140Z,2.90
2019-04-29T05:39:47.643Z,2.80
2019-04-29T05:42:17.325Z,2.50
2019-04-29T05:44:55.330Z,2.70
2019-04-29T05:47:34.108Z,2.87
2019-04-29T05:50:23.262Z,3.10
2019-04-29T05:53:11.432Z,2.90
2019-04-29T05:55:39.970Z,2.70
2019-04-29T05:58:11.283Z,2.60
2019-04-29T06:00:59.486Z,2.70
2019-04-29T06:03:27.937Z,2.70
2019-04-29T06:05:56.421Z,2.77
2019-04-29T06:08:25.062Z,2.70
2019-04-29T06:10:53.467Z,3.10
2019-04-29T06:13:21.875Z,3.07
2019-04-29T06:15:51.385Z,3.00
2019-04-29T06:18:22.079Z,3.13
2019-04-29T06:20:50.133Z,4.27
2019-04-29T06:23:18.998Z,3.80
2019-04-29T06:25:48.891Z,4.33
2019-04-29T06:28:21.598Z,4.50
2019-04-29T06:30:50.105Z,4.03
2019-04-29T06:33:18.587Z,3.40
2019-04-29T06:35:48.845Z,4.07
2019-04-29T06:38:17.677Z,3.70
2019-04-29T06:40:46.113Z,3.73
2019-04-29T06:43:16.930Z,3.60
2019-04-29T06:45:45.638Z,3.73
2019-04-29T06:48:14.091Z,3.90
2019-04-29T06:50:42.567Z,3.80
2019-04-29T06:53:11.027Z,3.50
2019-04-29T06:55:39.435Z,3.70
2019-04-29T06:58:07.860Z,3.67
2019-04-29T07:00:36.613Z,3.60
2019-04-29T07:03:05.138Z,3.43
2019-04-29T07:05:33.642Z,3.50
2019-04-29T07:08:02.236Z,3.30
2019-04-29T07:10:30.850Z,3.30
2019-04-29T07:12:59.296Z,3.07
2019-04-29T07:15:27.953Z,2.23
2019-04-29T07:17:56.372Z,1.70
2019-04-29T07:20:24.830Z,1.10
2019-04-29T07:22:56.564Z,1.40
2019-04-29T07:25:24.769Z,1.43
2019-04-29T07:27:54.632Z,1.30
2019-04-29T07:30:23.128Z,1.30
2019-04-29T07:32:51.823Z,1.30
2019-04-29T07:35:20.313Z,1.20
2019-04-29T07:37:48.763Z,1.00
2019-04-29T07:40:17.615Z,1.30
2019-04-29T07:42:47.040Z,1.20
2019-04-29T07:45:44.155Z,1.20
2019-04-29T07:48:06.531Z,1.37
2019-04-29T07:50:35.705Z,1.20
2019-04-29T07:53:04.126Z,1.20
2019-04-29T07:55:32.634Z,1.27
2019-04-29T07:58:01.242Z,1.40
2019-04-29T08:00:33.745Z,1.17
2019-04-29T08:03:05.375Z,1.33
2019-04-29T08:05:33.928Z,1.37
2019-04-29T08:08:03.805Z,1.30
2019-04-29T08:10:32.550Z,1.40
2019-04-29T08:13:01.033Z,1.23
2019-04-29T08:15:31.897Z,1.10
2019-04-29T08:18:06.376Z,1.47
2019-04-29T08:20:30.175Z,2.33
2019-04-29T08:23:02.585Z,1.60
2019-04-29T08:25:28.951Z,1.70
2019-04-29T08:27:57.427Z,1.90
2019-04-29T08:30:25.883Z,2.67
2019-04-29T08:32:54.555Z,1.90
2019-04-29T08:35:23.063Z,2.30
2019-04-29T08:37:51.627Z,2.23
2019-04-29T08:40:20.227Z,2.10
2019-04-29T08:42:54.766Z,2.30
2019-04-29T08:45:28.665Z,1.83
2019-04-29T08:47:57.611Z,1.83
2019-04-29T08:50:26.130Z,1.97
2019-04-29T08:52:54.813Z,1.13
2019-04-29T08:55:26.700Z,0.83
2019-04-29T08:57:53.641Z,1.10
2019-04-29T09:00:22.663Z,3.17
2019-04-29T09:02:51.215Z,0.90
2019-04-29T09:05:19.646Z,2.13
2019-04-29T09:07:48.153Z,0.90
2019-04-29T09:10:17.102Z,0.90
2019-04-29T09:12:45.555Z,0.70
2019-04-29T09:15:15.287Z,1.00
2019-04-29T09:17:43.703Z,1.07
2019-04-29T09:20:12.533Z,1.43
2019-04-29T09:22:45.999Z,0.90
2019-04-29T09:25:28.500Z,1.00
2019-04-29T09:27:58.805Z,0.90
2019-04-29T09:30:27.241Z,1.93
2019-04-29T09:32:55.756Z,1.00
2019-04-29T09:35:24.296Z,0.90
2019-04-29T09:37:53.934Z,0.70
2019-04-29T09:40:25.162Z,0.83
2019-04-29T09:43:21.530Z,0.70
2019-04-29T09:46:00.281Z,0.70
2019-04-29T09:48:28.801Z,0.80
2019-04-29T09:50:57.253Z,5.00
2019-04-29T09:53:25.766Z,1.00
2019-04-29T09:55:54.184Z,0.70
2019-04-29T09:58:22.613Z,1.00
2019-04-29T10:01:22.772Z,1.10
2019-04-29T10:04:25.603Z,0.65
2019-04-29T10:06:56.404Z,0.90
2019-04-29T10:09:24.831Z,1.45
2019-04-29T10:11:54.108Z,1.37
2019-04-29T10:14:23.388Z,0.80
2019-04-29T10:16:58.444Z,0.80
2019-04-29T10:19:52.137Z,1.10
2019-04-29T10:22:21.574Z,0.80
2019-04-29T10:24:52.206Z,1.07
2019-04-29T10:27:20.675Z,0.73
2019-04-29T10:29:55.132Z,0.70
2019-04-29T10:32:22.926Z,0.90
2019-04-29T10:34:51.866Z,0.70
2019-04-29T10:37:23.787Z,0.60
2019-04-29T10:40:11.387Z,0.73
2019-04-29T10:42:46.556Z,0.80
2019-04-29T10:45:40.685Z,0.80
2019-04-29T10:48:17.869Z,0.70
2019-04-29T10:50:47.209Z,0.70
2019-04-29T10:53:17.401Z,0.90
2019-04-29T10:55:45.974Z,0.70
2019-04-29T10:58:14.874Z,0.70
2019-04-29T11:04:38.183Z,0.70
2019-04-29T11:07:26.607Z,0.73
2019-04-29T11:09:58.252Z,0.70
2019-04-29T11:12:26.821Z,0.97
2019-04-29T11:14:55.291Z,0.90
2019-04-29T11:17:26.157Z,0.80
2019-04-29T11:19:54.624Z,1.70
2019-04-29T11:22:25.890Z,0.77
2019-04-29T11:25:12.526Z,1.10
2019-04-29T11:27:47.321Z,0.90
2019-04-29T11:30:19.319Z,1.10
2019-04-29T11:32:52.063Z,0.60
2019-04-29T11:35:51.988Z,0.80
2019-04-29T11:38:20.606Z,0.90
2019-04-29T11:40:50.338Z,1.30
2019-04-29T11:43:19.213Z,0.90
2019-04-29T11:45:47.959Z,0.60
2019-04-29T11:48:16.450Z,1.30
2019-04-29T11:50:54.704Z,1.47
2019-04-29T11:53:21.701Z,2.20
2019-04-29T11:55:52.510Z,1.70
2019-04-29T11:58:29.735Z,1.60
2019-04-29T12:01:38.410Z,1.25
2019-04-29T12:04:05.320Z,1.10
2019-04-29T12:06:34.616Z,0.90
2019-04-29T12:09:06.793Z,1.20
2019-04-29T12:11:37.736Z,1.20
2019-04-29T12:14:28.368Z,1.00
2019-04-29T12:17:16.332Z,1.10
2019-04-29T12:19:45.662Z,1.00
2019-04-29T12:22:26.792Z,3.00
2019-04-29T12:24:44.359Z,1.10
2019-04-29T12:27:19.729Z,1.30
2019-04-29T12:29:48.966Z,1.63
2019-04-29T12:32:43.532Z,1.90
2019-04-29T12:35:30.677Z,1.10
2019-04-29T12:38:24.616Z,1.22
2019-04-29T12:41:20.205Z,1.10
2019-04-29T12:43:59.584Z,1.25
2019-04-29T12:46:34.696Z,1.10
2019-04-29T12:49:08.641Z,1.20
2019-04-29T12:51:36.412Z,1.10
2019-04-29T12:54:05.051Z,0.90
2019-04-29T12:56:36.615Z,1.17
2019-04-29T12:59:06.360Z,1.22
2019-04-29T13:01:58.529Z,1.00
2019-04-29T13:04:49.895Z,1.40
2019-04-29T13:07:26.341Z,1.02
2019-04-29T13:10:01.878Z,1.10
2019-04-29T13:12:46.261Z,0.80
2019-04-29T13:15:47.890Z,1.37
2019-04-29T13:18:35.371Z,1.40
2019-04-29T13:21:10.510Z,1.30
2019-04-29T13:23:39.367Z,1.53
2019-04-29T13:26:08.239Z,1.20
2019-04-29T13:28:51.862Z,1.33
2019-04-29T13:31:07.262Z,1.10
2019-04-29T13:33:36.913Z,1.90
2019-04-29T13:36:06.486Z,1.70
2019-04-29T13:38:35.083Z,1.30
2019-04-29T13:41:13.575Z,1.00
2019-04-29T13:43:35.563Z,0.70
2019-04-29T13:46:23.760Z,1.20
2019-04-29T13:49:17.660Z,0.90
2019-04-29T13:51:46.639Z,0.90
2019-04-29T13:54:15.222Z,1.77
2019-04-29T13:56:55.332Z,1.30
2019-04-29T13:59:18.564Z,1.20
2019-04-29T14:02:06.771Z,3.33
2019-04-29T14:04:39.536Z,1.20
2019-04-29T14:07:08.283Z,1.20
2019-04-29T14:09:40.441Z,1.60
2019-04-29T14:12:46.361Z,1.63
2019-04-29T14:14:40.966Z,1.80
2019-04-29T14:17:25.338Z,1.50
2019-04-29T14:19:42.359Z,1.40
2019-04-29T14:22:21.494Z,1.50
2019-04-29T14:24:41.143Z,1.50
2019-04-29T14:27:23.467Z,1.30
2019-04-29T14:29:40.025Z,1.80
2019-04-29T14:32:08.644Z,1.67
2019-04-29T14:34:42.849Z,1.60
2019-04-29T14:37:20.013Z,1.37
2019-04-29T14:39:42.188Z,1.40
2019-04-29T14:42:33.704Z,1.70
2019-04-29T14:45:21.794Z,1.57
2019-04-29T14:48:08.500Z,1.27
2019-04-29T14:50:37.132Z,1.30
2019-04-29T14:53:05.564Z,1.10
2019-04-29T14:55:33.980Z,1.20
2019-04-29T14:58:02.519Z,1.17
2019-04-29T15:00:53.313Z,1.30
2019-04-29T15:03:23.090Z,1.63
2019-04-29T15:05:51.772Z,0.90
2019-04-29T15:08:20.319Z,1.30
2019-04-29T15:10:51.466Z,1.30
2019-04-29T15:13:21.883Z,1.10
2019-04-29T15:16:09.567Z,1.47
2019-04-29T15:18:58.620Z,3.40
2019-04-29T15:21:45.743Z,2.13
2019-04-29T15:24:17.419Z,1.77
2019-04-29T15:26:45.023Z,1.67
2019-04-29T15:29:13.489Z,1.70
2019-04-29T15:31:42.429Z,1.20
2019-04-29T15:34:14.457Z,3.60
2019-04-29T15:36:42.623Z,1.50
2019-04-29T15:39:12.125Z,1.10
2019-04-29T15:41:41.696Z,8.93
2019-04-29T15:44:18.962Z,5.00
2019-04-29T15:46:47.432Z,9.97
2019-04-29T15:49:10.975Z,3.40
2019-04-29T15:51:39.468Z,1.87
2019-04-29T15:54:09.250Z,2.67
2019-04-29T15:56:41.118Z,1.60
2019-04-29T15:59:10.445Z,1.30
2019-04-29T16:01:41.655Z,1.00
2019-04-29T16:04:20.750Z,1.67
2019-04-29T16:07:17.037Z,3.10
2019-04-29T16:09:52.349Z,2.00
2019-04-29T16:12:24.976Z,1.50
2019-04-29T16:14:53.499Z,1.47
2019-04-29T16:17:22.278Z,1.60
2019-04-29T16:19:51.022Z,3.63
2019-04-29T16:22:20.413Z,1.97
2019-04-29T16:24:49.886Z,2.17
2019-04-29T16:27:19.521Z,2.20
2019-04-29T16:29:51.902Z,1.87
2019-04-29T16:32:28.335Z,1.33
2019-04-29T16:34:57.920Z,1.40
2019-04-29T16:37:31.782Z,1.07
2019-04-29T16:39:59.777Z,1.60
2019-04-29T16:42:40.576Z,1.53
2019-04-29T16:45:12.126Z,1.77
2019-04-29T16:47:39.608Z,1.70
2019-04-29T16:50:08.856Z,1.50
2019-04-29T16:52:44.005Z,1.60
2019-04-29T16:55:08.464Z,1.50
2019-04-29T16:57:38.093Z,2.10
2019-04-29T17:02:42.151Z,1.50
2019-04-29T17:05:12.348Z,1.50
2019-04-29T17:07:43.768Z,1.30
2019-04-29T17:10:25.376Z,1.50
2019-04-29T17:12:54.241Z,2.47
2019-04-29T17:15:25.531Z,1.80
2019-04-29T17:17:53.923Z,1.40
2019-04-29T17:20:23.688Z,1.40
2019-04-29T17:22:52.197Z,1.30
2019-04-29T17:25:21.046Z,1.40
2019-04-29T17:28:12.489Z,1.50
2019-04-29T17:31:00.946Z,1.40
2019-04-29T17:35:17.652Z,2.30
2019-04-29T17:36:39.623Z,2.57
2019-04-29T17:39:08.305Z,3.13
2019-04-29T17:41:38.455Z,3.60
2019-04-29T17:44:21.186Z,1.87
2019-04-29T17:46:59.456Z,1.60
2019-04-29T17:49:51.767Z,1.10
2019-04-29T17:52:25.958Z,1.57
2019-04-29T17:54:59.199Z,1.67
2019-04-29T17:57:36.490Z,3.77
2019-04-29T18:00:54.489Z,4.80
2019-04-29T18:03:34.777Z,1.33
2019-04-29T18:06:29.607Z,2.20
2019-04-29T18:09:17.645Z,1.93
2019-04-29T18:11:51.580Z,1.90
2019-04-29T18:14:16.824Z,2.43
2019-04-29T18:16:48.279Z,2.20
2019-04-29T18:19:34.868Z,2.03
2019-04-29T18:22:20.303Z,2.50
2019-04-29T18:25:06.331Z,3.30
2019-04-29T18:27:36.847Z,1.90
2019-04-29T18:30:07.169Z,1.70
2019-04-29T18:32:42.326Z,2.70
2019-04-29T18:35:11.035Z,4.50
2019-04-29T18:37:39.491Z,2.40
2019-04-29T18:40:26.269Z,2.10
2019-04-29T18:42:55.402Z,2.70
2019-04-29T18:45:25.408Z,2.90
2019-04-29T18:47:54.306Z,2.17
2019-04-29T18:50:25.631Z,2.33
2019-04-29T18:52:56.045Z,2.50
2019-04-29T18:55:25.848Z,2.50
2019-04-29T18:57:58.186Z,2.20
2019-04-29T19:00:26.267Z,2.00
2019-04-29T19:02:58.437Z,2.10
2019-04-29T19:05:55.163Z,2.70
2019-04-29T19:08:26.606Z,2.27
2019-04-29T19:10:56.013Z,1.80
2019-04-29T19:13:26.106Z,2.20
2019-04-29T19:16:12.847Z,2.47
2019-04-29T19:18:42.351Z,4.73
2019-04-29T19:21:31.720Z,3.90
2019-04-29T19:24:01.196Z,3.27
2019-04-29T19:26:29.671Z,3.40
2019-04-29T19:29:01.317Z,2.90
2019-04-29T19:31:28.846Z,2.90
2019-04-29T19:33:57.438Z,2.30
2019-04-29T19:36:26.854Z,2.30
2019-04-29T19:38:57.327Z,2.27
2019-04-29T19:41:28.100Z,2.37
2019-04-29T19:43:57.078Z,2.47
2019-04-29T19:46:36.764Z,2.50
2019-04-29T19:48:58.276Z,2.57
2019-04-29T19:51:26.295Z,2.40
2019-04-29T19:53:55.210Z,2.60
2019-04-29T19:56:27.635Z,2.70
2019-04-29T19:58:58.001Z,2.63
2019-04-29T20:01:31.400Z,2.80
2019-04-29T20:04:17.588Z,2.90
2019-04-29T20:06:48.455Z,3.13
2019-04-29T20:09:22.664Z,3.00
2019-04-29T20:11:49.772Z,3.03
2019-04-29T20:14:25.605Z,2.93
2019-04-29T20:17:13.084Z,2.70
2019-04-29T20:19:58.684Z,3.00
2019-04-29T20:22:23.661Z,2.87
2019-04-29T20:24:55.435Z,3.10
2019-04-29T20:27:26.069Z,2.80
2019-04-29T20:29:53.960Z,3.33
2019-04-29T20:32:27.884Z,3.20
2019-04-29T20:34:57.489Z,3.20
2019-04-29T20:37:26.160Z,3.37
2019-04-29T20:39:57.293Z,2.67
2019-04-29T20:42:25.952Z,3.03
2019-04-29T20:44:55.239Z,3.20
2019-04-29T20:47:37.251Z,3.57
2019-04-29T20:49:55.843Z,3.40
2019-04-29T20:52:36.489Z,3.77
2019-04-29T20:55:08.963Z,3.03
2019-04-29T20:57:36.270Z,3.80
2019-04-29T21:00:06.428Z,3.90
2019-04-29T21:02:37.359Z,4.00
2019-04-29T21:05:09.760Z,4.07
2019-04-29T21:07:38.900Z,3.80
2019-04-29T21:10:08.573Z,3.80
2019-04-29T21:12:59.248Z,3.87
2019-04-29T21:15:33.212Z,3.90
2019-04-29T21:18:01.913Z,3.80
2019-04-29T21:20:30.396Z,4.07
2019-04-29T21:23:00.943Z,3.93
2019-04-29T21:25:32.098Z,4.50
2019-04-29T21:28:02.360Z,4.33
2019-04-29T21:30:35.408Z,4.50
2019-04-29T21:33:01.323Z,4.50
2019-04-29T21:35:45.344Z,4.60
2019-04-29T21:38:48.747Z,4.70
2019-04-29T21:41:23.094Z,4.37
2019-04-29T21:43:53.580Z,5.00
2019-04-29T21:46:29.270Z,4.43
2019-04-29T21:48:55.696Z,4.50
2019-04-29T21:51:25.574Z,4.77
2019-04-29T21:53:55.880Z,5.23
2019-04-29T21:56:25.793Z,4.73
2019-04-29T21:58:54.463Z,4.93
2019-04-29T22:01:25.033Z,5.00
2019-04-29T22:03:53.415Z,4.63
2019-04-29T22:06:24.680Z,4.50
2019-04-29T22:08:54.251Z,4.77
2019-04-29T22:11:23.010Z,4.60
2019-04-29T22:13:51.416Z,4.60
2019-04-29T22:16:19.883Z,4.77
2019-04-29T22:18:51.927Z,4.23
2019-04-29T22:21:22.005Z,4.60
2019-04-29T22:23:50.981Z,4.97
2019-04-29T22:26:23.188Z,4.87
2019-04-29T22:28:53.406Z,5.00
2019-04-29T22:31:20.237Z,4.60
2019-04-29T22:33:50.414Z,4.97
2019-04-29T22:36:18.898Z,4.23
2019-04-29T22:38:48.584Z,4.63
2019-04-29T22:41:26.253Z,4.67
2019-04-29T22:43:58.953Z,5.03
2019-04-29T22:46:27.376Z,5.00
2019-04-29T22:48:56.059Z,4.73
2019-04-29T22:51:25.415Z,5.03
2019-04-29T22:53:55.694Z,4.50
2019-04-29T22:56:27.629Z,4.97
2019-04-29T22:58:56.011Z,4.97
2019-04-29T23:01:25.895Z,5.13
2019-04-29T23:03:55.440Z,5.10
2019-04-29T23:06:25.877Z,5.17
2019-04-29T23:08:56.024Z,5.00
2019-04-29T23:11:24.702Z,5.30
2019-04-29T23:13:55.320Z,4.97
2019-04-29T23:16:23.819Z,4.90
2019-04-29T23:18:52.377Z,4.83
2019-04-29T23:21:47.309Z,4.80
2019-04-29T23:24:33.915Z,5.67
2019-04-29T23:27:02.506Z,5.40
2019-04-29T23:29:30.933Z,5.43
2019-04-29T23:31:59.835Z,5.10
2019-04-29T23:34:29.789Z,5.20
2019-04-29T23:36:58.648Z,5.27
2019-04-29T23:39:27.055Z,4.80
2019-04-29T23:41:55.551Z,4.47
2019-04-29T23:44:23.949Z,4.83
2019-04-29T23:46:52.371Z,4.10
2019-04-29T23:49:20.992Z,4.17
2019-04-29T23:51:49.460Z,4.90
2019-04-29T23:54:17.896Z,4.60
2019-04-29T23:57:16.375Z,4.27
